Jaboticabal, Brazil
Current Conditions -  °F | °C
As of 11:00 PM on Friday 28 Nov 2014 (Local Time) from SBRP Reporting Station
Overcast Overcast  
Wind Chill: 75°   Ceiling: 10000
Heat Index: 75°   Visibility: 6mi
Dew Point: 70°   Wind: 5mph
Humidity: 83%   Direction: 90°E
Pressure: 29.97"   Gusts: NA
Location:  21.25°S, 48.33°W
Report Text: SBRP 290100Z 09004KT 9999 FEW045 OVC100 24/21 Q1015
Loading
Personal Weather Stations






























Interactive Weather Map New forecast layout! Learn more

10-Day Weather Forecast

Advertisements
Track Severe Weather on mobile